Time;durP1;ratioP1;P1;durP2;ratioP2;P2;SDS_P1;SDS_P2;PMS_P1;PMS_P2;Temp;Humidity;BMP_temperature;BMP_pressure;BME280_temperature;BME280_humidity;BME280_pressure;Samples;Min_cycle;Max_cycle;Signal;HPM_P1;HPM_P2
2022/11/02 00:00:24;;;;;;;6.35;0.70;;;;;;;10.27;47.68;101219.88;5025854;28;20041;-69
2022/11/02 00:02:49;;;;;;;5.10;0.93;;;;;;;10.26;47.47;101222.53;5010502;28;20605;-69
2022/11/02 00:05:15;;;;;;;5.97;0.60;;;;;;;10.45;47.17;101213.19;5013959;28;20084;-69
2022/11/02 00:07:41;;;;;;;5.70;0.52;;;;;;;10.37;47.38;101221.31;5022715;28;20071;-69
2022/11/02 00:10:08;;;;;;;6.15;0.50;;;;;;;10.06;48.30;101207.53;5026484;28;20502;-69
2022/11/02 00:12:33;;;;;;;7.38;0.52;;;;;;;10.24;47.79;101208.72;5022818;28;20466;-69
2022/11/02 00:14:59;;;;;;;4.13;0.60;;;;;;;10.25;47.47;101211.25;5021483;28;20129;-69
2022/11/02 00:17:25;;;;;;;8.25;0.52;;;;;;;10.46;47.13;101206.19;5026531;28;20041;-71
2022/11/02 00:19:52;;;;;;;6.13;0.52;;;;;;;10.31;47.01;101199.75;5023641;28;20252;-71
2022/11/02 00:22:18;;;;;;;6.43;0.60;;;;;;;10.36;47.20;101200.44;5027405;28;20080;-71
2022/11/02 00:24:43;;;;;;;6.43;0.40;;;;;;;10.31;47.34;101195.38;5010484;28;20486;-71
2022/11/02 00:27:10;;;;;;;6.15;0.38;;;;;;;10.39;46.87;101195.09;5013055;28;20033;-71
2022/11/02 00:29:35;;;;;;;5.18;0.43;;;;;;;10.55;46.76;101198.06;5025853;28;20123;-70
2022/11/02 00:32:01;;;;;;;6.65;0.68;;;;;;;10.08;47.62;101192.66;5027443;28;20044;-72
2022/11/02 00:34:27;;;;;;;5.15;0.50;;;;;;;10.30;47.21;101198.88;5002370;28;20155;-71
2022/11/02 00:36:53;;;;;;;5.70;0.70;;;;;;;10.61;46.47;101188.22;5015098;28;20056;-70
2022/11/02 00:39:19;;;;;;;7.07;0.32;;;;;;;10.25;47.16;101192.13;5027042;28;20051;-72
2022/11/02 00:41:44;;;;;;;4.95;0.95;;;;;;;10.36;47.10;101192.59;5028632;28;20079;-72
2022/11/02 00:44:10;;;;;;;7.07;0.60;;;;;;;10.46;46.82;101193.13;5030437;28;20444;-72
2022/11/02 00:46:35;;;;;;;7.13;0.77;;;;;;;10.58;46.55;101183.13;5027958;28;20032;-73
2022/11/02 00:49:02;;;;;;;12.15;1.38;;;;;;;10.38;46.95;101180.34;5013862;28;20409;-72
2022/11/02 00:51:28;;;;;;;4.47;0.88;;;;;;;10.13;47.25;101188.16;5001219;28;20037;-73
2022/11/02 00:53:53;;;;;;;7.25;0.52;;;;;;;10.12;47.32;101184.66;5026421;28;20056;-73
2022/11/02 00:56:19;;;;;;;6.90;0.85;;;;;;;10.12;47.13;101173.38;5013237;28;20037;-74
2022/11/02 00:58:44;;;;;;;9.73;1.35;;;;;;;10.17;47.51;101193.22;4995127;28;20045;-76
2022/11/02 01:01:10;;;;;;;5.65;0.63;;;;;;;10.44;46.57;101187.97;5000489;28;20057;-76
2022/11/02 01:03:36;;;;;;;4.72;0.30;;;;;;;10.56;46.43;101179.69;5025758;28;20092;-73
2022/11/02 01:06:16;;;;;;;5.70;0.60;;;;;;;10.62;46.30;101184.72;5021343;28;20049;-74
2022/11/02 01:08:41;;;;;;;3.90;1.02;;;;;;;10.67;46.38;101186.31;5026719;28;20049;-74
2022/11/02 01:11:21;;;;;;;4.20;0.47;;;;;;;10.58;46.39;101201.41;4998735;28;20043;-74
2022/11/02 01:13:49;;;;;;;4.40;0.75;;;;;;;10.62;46.46;101200.41;5024418;28;20042;-74
2022/11/02 01:16:17;;;;;;;1.88;0.40;;;;;;;10.78;45.80;101192.03;5013767;28;20548;-76
2022/11/02 01:18:43;;;;;;;2.05;0.32;;;;;;;10.81;45.64;101181.44;5008683;28;20126;-76
2022/11/02 01:21:09;;;;;;;3.30;0.70;;;;;;;10.16;47.77;101186.28;5014609;28;20074;-76
2022/11/02 01:23:36;;;;;;;2.40;0.30;;;;;;;10.33;47.64;101187.50;5012716;28;20065;-76
2022/11/02 01:26:07;;;;;;;5.80;0.45;;;;;;;10.14;48.34;101195.94;5028577;28;20612;-75
2022/11/02 01:28:32;;;;;;;11.27;1.02;;;;;;;9.89;49.18;101176.75;5011834;28;20200;-75
2022/11/02 01:30:58;;;;;;;3.90;0.70;;;;;;;10.21;48.34;101160.88;5010559;28;20441;-76
2022/11/02 01:33:27;;;;;;;6.22;0.47;;;;;;;10.18;48.34;101163.56;4995558;28;20213;-72
2022/11/02 01:35:54;;;;;;;3.60;0.57;;;;;;;10.45;47.54;101155.69;5023459;28;20036;-72
2022/11/02 01:38:22;;;;;;;4.72;0.82;;;;;;;10.40;48.03;101162.84;5014412;28;20052;-72
2022/11/02 01:40:47;;;;;;;3.40;0.63;;;;;;;10.57;47.28;101160.50;5008341;28;20029;-73
2022/11/02 01:43:27;;;;;;;5.40;0.52;;;;;;;10.14;48.20;101161.97;5016520;28;20049;-73
2022/11/02 01:46:11;;;;;;;3.30;0.57;;;;;;;10.36;48.17;101162.09;5027302;28;20116;-72
2022/11/02 01:48:43;;;;;;;7.03;0.60;;;;;;;10.33;48.12;101171.81;5026572;28;20045;-73
2022/11/02 01:51:12;;;;;;;8.55;0.68;;;;;;;10.05;48.70;101206.69;5000410;28;20049;-71
2022/11/02 01:53:43;;;;;;;3.25;0.52;;;;;;;9.91;49.96;101242.84;5016555;28;20175;-72
2022/11/02 01:56:12;;;;;;;8.37;0.73;;;;;;;9.26;54.06;101255.16;5010382;28;20041;-71
2022/11/02 01:58:37;;;;;;;13.38;0.50;;;;;;;8.38;57.13;101247.91;5011019;28;20116;-73
2022/11/02 02:01:03;;;;;;;3.55;0.30;;;;;;;8.16;57.44;101240.66;5043239;28;20037;-74
2022/11/02 02:03:31;;;;;;;2.70;0.38;;;;;;;8.30;57.27;101237.69;5014130;28;20056;-73
2022/11/02 02:06:03;;;;;;;1.65;0.10;;;;;;;7.22;60.02;101232.28;4999285;28;20360;-72
2022/11/02 02:08:29;;;;;;;0.60;0.00;;;;;;;7.82;58.52;101222.34;5010517;28;20758;-73
2022/11/02 02:10:58;;;;;;;0.52;0.10;;;;;;;7.36;60.34;101216.38;5013808;28;20132;-72
2022/11/02 02:13:27;;;;;;;2.47;0.10;;;;;;;7.80;58.83;101218.91;4994848;28;20080;-73
2022/11/02 02:16:10;;;;;;;3.45;0.10;;;;;;;7.75;58.99;101211.22;5017344;28;20513;-73
2022/11/02 02:18:47;;;;;;;5.53;0.30;;;;;;;7.90;58.66;101213.47;5009990;28;20120;-73
2022/11/02 02:21:45;;;;;;;0.40;0.15;;;;;;;7.82;59.11;101202.38;5010634;28;20529;-73
2022/11/02 02:24:32;;;;;;;3.63;0.10;;;;;;;6.97;61.83;101199.84;5007455;28;20053;-74
2022/11/02 02:27:31;;;;;;;1.75;0.10;;;;;;;7.43;60.60;101201.50;5004745;28;20157;-74
2022/11/02 02:30:08;;;;;;;4.95;0.50;;;;;;;7.53;60.33;101195.19;5026318;28;20051;-71
2022/11/02 02:33:15;;;;;;;0.35;0.10;;;;;;;7.22;61.78;101189.78;5009237;28;20040;-72
2022/11/02 02:35:47;;;;;;;1.38;0.17;;;;;;;7.15;62.67;101198.63;5031021;28;20049;-72
2022/11/02 02:38:21;;;;;;;2.78;0.10;;;;;;;7.02;63.01;101191.06;4997948;28;20138;-73
2022/11/02 02:40:51;;;;;;;1.42;0.10;;;;;;;7.22;62.78;101190.66;5025898;28;20063;-73
2022/11/02 02:43:23;;;;;;;1.17;0.10;;;;;;;7.22;62.13;101189.78;5026047;28;20037;-73
2022/11/02 02:46:07;;;;;;;0.40;0.10;;;;;;;7.88;60.57;101180.56;5025354;28;20037;-73
2022/11/02 02:48:34;;;;;;;1.38;0.10;;;;;;;7.84;60.16;101168.50;4999604;28;20033;-72
2022/11/02 02:51:05;;;;;;;2.50;0.30;;;;;;;8.11;59.64;101161.78;5014577;28;20522;-72
2022/11/02 02:53:40;;;;;;;1.02;0.30;;;;;;;8.09;59.80;101166.16;5010088;28;20322;-73
2022/11/02 02:56:08;;;;;;;4.88;0.43;;;;;;;8.05;59.57;101167.16;5027634;28;20553;-72
2022/11/02 02:59:10;;;;;;;0.45;0.30;;;;;;;8.05;59.22;101151.53;5026703;28;20053;-72
2022/11/02 03:01:41;;;;;;;2.83;0.35;;;;;;;8.17;58.52;101147.75;5003985;28;20037;-73
2022/11/02 03:04:16;;;;;;;0.63;0.20;;;;;;;7.76;59.77;101140.09;5009351;28;20056;-71
2022/11/02 03:06:47;;;;;;;3.53;0.63;;;;;;;7.87;59.61;101142.41;5007092;28;20505;-73
2022/11/02 03:09:19;;;;;;;1.08;0.30;;;;;;;7.99;59.12;101142.13;5008359;28;20380;-73
2022/11/02 03:12:17;;;;;;;2.83;0.20;;;;;;;8.12;58.64;101133.09;5012110;28;20091;-74
2022/11/02 03:15:06;;;;;;;2.83;0.20;;;;;;;8.13;58.07;101111.38;4992273;28;20045;-73
2022/11/02 03:17:59;;;;;;;1.88;0.22;;;;;;;8.02;58.33;101116.00;5025173;28;20060;-74
2022/11/02 03:20:49;;;;;;;4.90;0.30;;;;;;;7.90;58.69;101111.13;5019878;28;20033;-74
2022/11/02 03:23:29;;;;;;;3.33;0.80;;;;;;;7.83;59.25;101119.97;5007018;28;20053;-74
2022/11/02 03:25:58;;;;;;;7.20;0.82;;;;;;;7.80;59.58;101117.44;5013937;28;20029;-71
2022/11/02 03:29:03;;;;;;;4.30;0.38;;;;;;;8.02;58.79;101117.75;4995677;28;21033;-73
2022/11/02 03:31:39;;;;;;;2.50;0.52;;;;;;;8.02;58.80;101121.19;5024944;28;20605;-71
2022/11/02 03:34:43;;;;;;;5.63;0.52;;;;;;;8.07;58.62;101116.75;5007598;28;20040;-71
2022/11/02 03:37:30;;;;;;;5.28;1.08;;;;;;;7.53;60.77;101115.44;4993002;28;20045;-70
2022/11/02 03:40:05;;;;;;;4.57;0.95;;;;;;;8.02;58.78;101125.56;5024039;28;20281;-71
2022/11/02 03:42:34;;;;;;;6.32;0.82;;;;;;;8.15;58.40;101130.41;5008538;28;20044;-70
2022/11/02 03:45:12;;;;;;;5.40;0.77;;;;;;;8.05;58.89;101128.09;5023921;28;20048;-71
2022/11/02 03:47:39;;;;;;;8.70;1.27;;;;;;;8.14;58.71;101125.25;5021774;28;20457;-71
2022/11/02 03:50:11;;;;;;;6.07;0.47;;;;;;;8.16;59.08;101133.91;5024691;28;20041;-70
2022/11/02 03:52:41;;;;;;;3.78;0.88;;;;;;;7.74;60.43;101134.91;5021854;28;20283;-71
2022/11/02 03:55:11;;;;;;;7.85;0.90;;;;;;;8.24;58.92;101124.09;5023582;28;20048;-73
2022/11/02 03:57:40;;;;;;;12.63;1.08;;;;;;;8.39;58.16;101128.06;5020572;28;20247;-72
2022/11/02 04:00:16;;;;;;;7.63;0.88;;;;;;;8.41;58.35;101131.50;5013055;28;20045;-73
2022/11/02 04:02:54;;;;;;;9.13;0.75;;;;;;;8.22;58.78;101122.44;5002330;28;20592;-71
2022/11/02 04:05:30;;;;;;;6.22;0.40;;;;;;;7.69;60.30;101130.69;5027713;28;20032;-71
2022/11/02 04:16:15;;;;;;;8.05;1.45;;;;;;;7.70;59.29;101119.41;5021726;28;20049;-76
2022/11/02 04:21:28;;;;;;;5.93;0.70;;;;;;;8.18;57.35;101126.03;5012343;28;20029;-74
2022/11/02 04:26:38;;;;;;;5.97;0.90;;;;;;;8.34;56.57;101138.63;5029967;28;20037;-78
2022/11/02 04:29:04;;;;;;;4.75;0.98;;;;;;;7.83;57.83;101146.00;5029228;28;20053;-78
2022/11/02 04:31:30;;;;;;;5.70;0.40;;;;;;;8.03;56.90;101143.75;5003257;28;20658;-79
2022/11/02 04:33:58;;;;;;;9.05;0.35;;;;;;;7.77;57.71;101146.97;4996975;28;22373;-79
2022/11/02 04:36:27;;;;;;;7.60;0.68;;;;;;;8.00;57.21;101142.97;5014619;28;20356;-79
2022/11/02 04:38:55;;;;;;;2.28;0.52;;;;;;;7.88;57.11;101146.72;5011492;28;20528;-76
2022/11/02 04:41:41;;;;;;;8.77;0.40;;;;;;;7.69;57.54;101154.97;5013100;28;20501;-75
2022/11/02 04:44:33;;;;;;;6.15;0.93;;;;;;;8.18;56.21;101154.66;5014482;28;20517;-74
2022/11/02 04:47:05;;;;;;;7.47;0.50;;;;;;;7.92;56.77;101162.22;5014183;28;20120;-77
2022/11/02 04:49:33;;;;;;;3.88;0.22;;;;;;;8.04;56.53;101155.84;5003633;28;20033;-78
2022/11/02 04:51:58;;;;;;;2.70;0.52;;;;;;;7.97;56.43;101159.50;5026744;28;20040;-76
2022/11/02 04:54:26;;;;;;;3.38;0.17;;;;;;;8.28;55.82;101166.56;5020141;28;20044;-76
2022/11/02 04:56:56;;;;;;;5.28;0.30;;;;;;;7.77;56.63;101162.59;4998085;28;20337;-76
2022/11/02 04:59:23;;;;;;;2.28;0.50;;;;;;;8.17;55.49;101171.19;5010328;28;20096;-76
2022/11/02 05:01:49;;;;;;;4.15;0.55;;;;;;;8.16;55.34;101172.94;5012860;28;20025;-76
2022/11/02 05:04:15;;;;;;;6.43;0.35;;;;;;;7.91;56.11;101175.28;5009331;28;20400;-76
2022/11/02 05:06:40;;;;;;;1.85;0.30;;;;;;;7.59;56.65;101171.69;5000888;28;20066;-68
2022/11/02 05:09:08;;;;;;;6.70;0.28;;;;;;;7.56;55.60;101174.38;5001407;28;20079;-67
2022/11/02 05:11:36;;;;;;;3.25;0.85;;;;;;;7.68;55.07;101158.47;5009080;28;20028;-69
2022/11/02 05:14:02;;;;;;;10.32;0.40;;;;;;;7.46;56.27;101173.66;5006477;28;20053;-73
2022/11/02 05:16:28;;;;;;;5.15;0.45;;;;;;;7.31;55.44;101180.06;5017633;28;20033;-73
2022/11/02 05:18:54;;;;;;;0.80;0.10;;;;;;;7.78;54.99;101185.13;5016443;28;20080;-72
2022/11/02 05:21:21;;;;;;;3.38;0.15;;;;;;;7.09;56.04;101178.81;5010781;28;20483;-72
2022/11/02 05:23:48;;;;;;;10.07;0.28;;;;;;;7.51;55.50;101177.03;5007016;28;20238;-73
2022/11/02 05:26:13;;;;;;;4.30;0.25;;;;;;;7.84;54.72;101168.50;4999582;28;20051;-72
2022/11/02 05:28:43;;;;;;;3.88;0.63;;;;;;;7.35;55.60;101178.25;5006724;28;20099;-75
2022/11/02 05:31:08;;;;;;;6.35;0.47;;;;;;;7.05;56.23;101179.75;5010919;28;20505;-74
2022/11/02 05:33:35;;;;;;;6.32;0.50;;;;;;;7.36;55.62;101186.94;5013571;28;20037;-75
2022/11/02 05:36:09;;;;;;;8.95;0.45;;;;;;;7.32;56.07;101181.78;5006047;28;20041;-75
2022/11/02 05:38:37;;;;;;;5.95;0.98;;;;;;;7.11;56.33;101177.03;5007489;28;20041;-75
2022/11/02 05:41:03;;;;;;;1.85;0.10;;;;;;;7.78;54.71;101173.84;5025368;28;20025;-72
2022/11/02 05:43:33;;;;;;;8.07;0.75;;;;;;;7.11;56.18;101174.44;5010243;28;20045;-75
2022/11/02 05:46:01;;;;;;;7.78;0.40;;;;;;;7.37;55.88;101181.66;5012696;28;20029;-74
2022/11/02 05:48:30;;;;;;;7.00;0.28;;;;;;;7.82;55.10;101176.34;4999228;28;20049;-74
2022/11/02 05:50:58;;;;;;;4.38;0.40;;;;;;;7.46;55.41;101162.41;5007128;28;20033;-77
2022/11/02 05:53:25;;;;;;;5.13;0.57;;;;;;;7.53;55.67;101174.38;4990003;28;20053;-75
2022/11/02 05:55:51;;;;;;;7.97;0.40;;;;;;;7.24;55.87;101165.47;5000957;28;20029;-73
2022/11/02 05:58:17;;;;;;;4.93;0.25;;;;;;;7.14;56.31;101176.97;5027806;28;20049;-69
2022/11/02 06:00:43;;;;;;;4.35;0.43;;;;;;;7.61;55.14;101176.84;5014457;28;20826;-70
2022/11/02 06:03:09;;;;;;;3.45;0.52;;;;;;;7.44;55.39;101174.59;5025944;28;20172;-72
2022/11/02 06:05:34;;;;;;;3.97;0.40;;;;;;;7.83;54.38;101177.22;5006003;28;21156;-75
2022/11/02 06:08:01;;;;;;;1.27;0.30;;;;;;;7.97;54.18;101185.53;5042833;28;20113;-76
2022/11/02 06:10:28;;;;;;;2.92;0.20;;;;;;;7.61;55.07;101172.50;4996455;28;20037;-77
2022/11/02 06:12:58;;;;;;;6.05;0.52;;;;;;;7.78;54.61;101176.44;5004265;28;20399;-79
2022/11/02 06:15:24;;;;;;;5.75;0.70;;;;;;;7.46;54.85;101170.22;5017096;28;20045;-75
2022/11/02 06:17:50;;;;;;;5.13;0.30;;;;;;;7.56;54.82;101179.56;5010827;28;20048;-76
2022/11/02 06:20:16;;;;;;;7.85;0.52;;;;;;;7.58;55.17;101182.13;5000042;28;20490;-77
2022/11/02 06:22:42;;;;;;;7.22;0.50;;;;;;;7.80;54.04;101187.69;5010208;28;20068;-74
2022/11/02 06:25:08;;;;;;;5.32;0.28;;;;;;;7.71;54.71;101187.03;4998671;28;20064;-73
2022/11/02 06:27:34;;;;;;;5.35;0.57;;;;;;;7.93;54.26;101187.34;5006402;28;22182;-76
2022/11/02 06:30:03;;;;;;;3.30;0.30;;;;;;;7.72;54.84;101191.31;4995342;28;20030;-76
2022/11/02 06:32:28;;;;;;;5.63;0.70;;;;;;;7.76;54.71;101194.72;5025184;28;20048;-76
2022/11/02 06:34:54;;;;;;;6.45;0.52;;;;;;;7.85;54.48;101204.06;4995904;28;20060;-76
2022/11/02 06:37:19;;;;;;;3.47;0.32;;;;;;;7.43;55.69;101202.34;5026586;28;20134;-75
2022/11/02 06:39:45;;;;;;;3.78;0.50;;;;;;;7.66;55.31;101201.03;5011781;28;20094;-77
2022/11/02 06:42:10;;;;;;;4.28;0.50;;;;;;;7.48;55.67;101199.66;5012331;28;20044;-77
2022/11/02 06:44:36;;;;;;;5.60;0.32;;;;;;;7.51;56.23;101202.16;5014322;28;20021;-74
2022/11/02 06:47:01;;;;;;;3.67;0.50;;;;;;;7.70;55.36;101203.50;5025982;28;20559;-75
2022/11/02 06:49:26;;;;;;;6.22;0.40;;;;;;;7.61;56.04;101211.53;5007813;28;20060;-72
2022/11/02 06:51:52;;;;;;;6.97;0.32;;;;;;;7.74;55.62;101204.31;5029343;28;20663;-74
2022/11/02 06:54:17;;;;;;;4.13;1.08;;;;;;;7.64;55.63;101223.59;5014755;28;20033;-72
2022/11/02 06:56:43;;;;;;;7.32;0.60;;;;;;;7.30;56.75;101216.50;5019800;28;20045;-73
2022/11/02 06:59:09;;;;;;;3.72;0.25;;;;;;;7.40;56.71;101224.94;5013471;28;20064;-76
2022/11/02 07:01:34;;;;;;;5.50;0.75;;;;;;;7.61;55.98;101234.09;5020434;28;20029;-72
2022/11/02 07:04:01;;;;;;;8.80;0.50;;;;;;;7.67;55.73;101234.81;5026894;28;20111;-74
2022/11/02 07:06:26;;;;;;;7.95;1.05;;;;;;;7.46;56.89;101232.63;5029628;28;20029;-73
2022/11/02 07:08:54;;;;;;;4.57;0.93;;;;;;;7.47;56.84;101248.22;5029787;28;20033;-73
2022/11/02 07:11:20;;;;;;;3.28;0.40;;;;;;;7.97;55.48;101252.38;5009843;28;20490;-73
2022/11/02 07:13:46;;;;;;;8.50;0.40;;;;;;;8.08;55.57;101239.97;5024250;28;20079;-74
2022/11/02 07:16:11;;;;;;;7.90;0.47;;;;;;;7.79;56.85;101228.47;5027691;28;20041;-74
2022/11/02 07:18:37;;;;;;;7.20;0.50;;;;;;;7.84;56.67;101259.59;5000053;28;20638;-74
2022/11/02 07:21:03;;;;;;;3.58;0.40;;;;;;;7.30;57.59;101242.50;5015270;28;20036;-74
2022/11/02 07:23:29;;;;;;;8.27;0.85;;;;;;;7.76;57.32;101270.19;5015345;28;20979;-73
2022/11/02 07:25:54;;;;;;;3.83;0.35;;;;;;;7.95;56.10;101265.41;5004493;28;20060;-76
2022/11/02 07:28:20;;;;;;;3.30;0.47;;;;;;;7.86;56.59;101271.69;4999860;28;20044;-71
2022/11/02 07:30:46;;;;;;;7.15;0.60;;;;;;;8.00;57.03;101288.72;5007649;28;20036;-73
2022/11/02 07:33:12;;;;;;;4.40;0.30;;;;;;;7.51;57.96;101301.00;4989121;28;20041;-73
2022/11/02 07:35:37;;;;;;;7.68;0.60;;;;;;;8.27;56.10;101274.22;5023723;28;20567;-76
2022/11/02 07:38:06;;;;;;;2.35;0.40;;;;;;;7.98;56.59;101283.59;5022872;28;20252;-73
2022/11/02 07:40:34;;;;;;;9.25;1.35;;;;;;;7.88;56.88;101290.72;5026025;28;20032;-74
2022/11/02 07:43:00;;;;;;;7.38;1.05;;;;;;;7.58;57.56;101300.06;5006086;28;20624;-74
2022/11/02 07:45:36;;;;;;;4.72;0.80;;;;;;;8.10;56.41;101295.47;4996186;28;20020;-74
2022/11/02 07:48:01;;;;;;;5.60;0.50;;;;;;;8.02;56.72;101303.41;5007088;28;20509;-74
2022/11/02 07:50:27;;;;;;;5.25;0.47;;;;;;;7.91;57.37;101289.78;5017590;28;20076;-75
2022/11/02 07:52:55;;;;;;;9.10;1.08;;;;;;;7.46;58.29;101292.44;5010903;28;20061;-75
2022/11/02 07:55:23;;;;;;;2.13;0.45;;;;;;;7.64;58.29;101312.91;4998327;28;20137;-76
2022/11/02 07:58:09;;;;;;;12.82;0.57;;;;;;;8.06;58.19;101310.28;5022649;28;20400;-76
2022/11/02 08:00:37;;;;;;;5.15;0.85;;;;;;;8.42;56.39;101307.72;5026508;28;20037;-73
2022/11/02 08:03:05;;;;;;;5.47;0.90;;;;;;;8.01;56.83;101314.75;5006584;28;20036;-73
2022/11/02 08:05:33;;;;;;;5.45;0.57;;;;;;;8.70;55.13;101304.44;5006606;28;20494;-73
2022/11/02 08:08:07;;;;;;;3.05;0.55;;;;;;;8.23;55.94;101314.25;5008476;28;20077;-74
2022/11/02 08:10:34;;;;;;;8.23;0.40;;;;;;;7.82;57.38;101321.22;5011409;28;20084;-72
2022/11/02 08:13:02;;;;;;;4.20;0.32;;;;;;;7.58;58.38;101333.88;5008193;28;20124;-73
2022/11/02 08:15:28;;;;;;;11.20;0.93;;;;;;;7.25;58.52;101323.19;5027805;28;20577;-73
2022/11/02 08:18:01;;;;;;;10.02;0.95;;;;;;;7.85;57.36;101331.59;5025094;28;20040;-72
2022/11/02 08:20:27;;;;;;;9.77;0.70;;;;;;;8.60;55.34;101336.81;5024107;28;20044;-73
2022/11/02 08:22:53;;;;;;;7.85;0.75;;;;;;;8.53;55.64;101342.16;4992757;28;20044;-72
2022/11/02 08:25:19;;;;;;;4.15;0.47;;;;;;;8.67;55.53;101346.19;5024515;28;20069;-73
2022/11/02 08:27:45;;;;;;;11.30;0.80;;;;;;;8.64;55.84;101348.88;5023852;28;20045;-73
2022/11/02 08:30:11;;;;;;;7.55;0.73;;;;;;;9.87;52.13;101349.09;5026168;28;20041;-73
2022/11/02 08:32:37;;;;;;;5.03;0.52;;;;;;;10.11;51.34;101342.31;5006321;28;20101;-73
2022/11/02 08:35:04;;;;;;;4.75;0.43;;;;;;;9.79;52.19;101349.34;5023484;28;20143;-72
2022/11/02 08:37:29;;;;;;;6.45;0.50;;;;;;;10.80;49.60;101354.94;5007270;28;20585;-72
2022/11/02 08:39:54;;;;;;;0.77;0.30;;;;;;;9.34;52.50;101365.38;5022809;28;20032;-73
2022/11/02 08:42:20;;;;;;;4.38;0.32;;;;;;;9.38;53.06;101369.59;5024452;28;20121;-73
2022/11/02 08:44:45;;;;;;;6.20;0.93;;;;;;;8.74;54.38;101376.47;5028711;28;20037;-72
2022/11/02 08:47:11;;;;;;;5.50;0.32;;;;;;;9.19;54.12;101379.66;5027091;28;20037;-72
2022/11/02 08:49:36;;;;;;;3.10;0.43;;;;;;;9.73;52.52;101378.19;5010519;28;23071;-73
2022/11/02 08:52:02;;;;;;;6.82;0.47;;;;;;;10.02;51.38;101390.44;5027996;28;20148;-72
2022/11/02 08:54:27;;;;;;;5.30;0.60;;;;;;;10.12;50.84;101387.56;5011348;28;20041;-73
2022/11/02 08:56:53;;;;;;;7.20;0.70;;;;;;;9.82;51.86;101395.41;5019352;28;20599;-72
2022/11/02 08:59:18;;;;;;;4.05;0.40;;;;;;;9.80;51.73;101392.81;5027734;28;20505;-72
2022/11/02 09:01:43;;;;;;;3.88;0.30;;;;;;;9.72;52.23;101394.78;5001649;28;20033;-72
2022/11/02 09:04:09;;;;;;;2.28;0.47;;;;;;;9.46;53.47;101418.97;5025507;28;20072;-72
2022/11/02 09:06:35;;;;;;;3.90;0.20;;;;;;;8.98;54.97;101414.97;5023554;28;20045;-72
2022/11/02 09:09:00;;;;;;;11.23;0.35;;;;;;;8.78;54.23;101430.22;5006476;28;20501;-72
2022/11/02 09:11:25;;;;;;;4.13;0.88;;;;;;;8.35;55.69;101441.59;5023317;28;20163;-72
2022/11/02 09:13:51;;;;;;;4.97;0.20;;;;;;;8.32;56.39;101446.88;5011888;28;20442;-72
2022/11/02 09:16:17;;;;;;;7.00;0.50;;;;;;;8.12;57.28;101448.13;4995342;28;20554;-72
2022/11/02 09:18:42;;;;;;;2.58;0.28;;;;;;;8.27;56.57;101451.31;5025254;28;20037;-72
2022/11/02 09:21:08;;;;;;;4.72;0.65;;;;;;;8.95;55.17;101455.91;5026865;28;20033;-72
2022/11/02 09:23:33;;;;;;;5.03;0.90;;;;;;;9.27;54.88;101464.69;4995950;28;20512;-72
2022/11/02 09:25:59;;;;;;;5.53;0.50;;;;;;;9.19;54.83;101463.13;5000033;28;20037;-72
2022/11/02 09:28:25;;;;;;;12.63;0.85;;;;;;;9.44;54.05;101461.66;4996259;28;20295;-73
2022/11/02 09:30:51;;;;;;;10.98;0.40;;;;;;;9.29;53.80;101458.53;5014401;28;20041;-71
2022/11/02 09:33:16;;;;;;;2.75;0.30;;;;;;;9.17;54.19;101464.91;5024909;28;20591;-73
2022/11/02 09:35:47;;;;;;;4.65;0.55;;;;;;;9.17;53.57;101479.72;5005310;28;20501;-73
2022/11/02 09:38:14;;;;;;;3.55;0.40;;;;;;;8.54;55.06;101484.59;5021841;28;20040;-72
2022/11/02 09:40:44;;;;;;;5.47;0.57;;;;;;;8.28;54.58;101476.47;5007830;28;20036;-71
2022/11/02 09:43:26;;;;;;;2.85;0.20;;;;;;;8.89;53.13;101474.28;5024743;28;20539;-73
2022/11/02 09:46:24;;;;;;;1.88;0.20;;;;;;;8.94;52.01;101475.91;5024616;28;20481;-71
2022/11/02 09:48:55;;;;;;;1.75;0.30;;;;;;;9.34;51.43;101482.78;5021196;28;20049;-73
2022/11/02 09:51:22;;;;;;;2.40;0.30;;;;;;;9.76;49.66;101485.13;5024332;28;20111;-71
2022/11/02 09:54:12;;;;;;;6.70;0.68;;;;;;;9.57;49.61;101478.72;5021025;28;20041;-73
2022/11/02 09:56:40;;;;;;;3.88;0.30;;;;;;;9.64;49.95;101482.88;5008028;28;20045;-71
2022/11/02 09:59:18;;;;;;;3.20;0.20;;;;;;;10.37;48.68;101493.06;5025503;28;20055;-72
2022/11/02 10:01:50;;;;;;;3.05;0.20;;;;;;;9.87;48.38;101487.50;5008335;28;20567;-71
2022/11/02 10:04:30;;;;;;;;;;;;;;;10.08;48.48;101496.50;5024402;28;20044;-72
2022/11/02 10:07:07;;;;;;;4.90;0.63;;;;;;;10.08;48.38;101501.72;5024310;28;19921;-71
2022/11/02 10:09:48;;;;;;;5.60;0.40;;;;;;;10.66;47.63;101506.13;5028071;28;20329;-71
2022/11/02 10:12:22;;;;;;;2.63;0.20;;;;;;;10.43;47.56;101486.78;5027388;28;20039;-71
2022/11/02 10:14:47;;;;;;;5.70;0.38;;;;;;;11.10;47.29;101504.78;5007690;28;20505;-72
2022/11/02 10:17:24;;;;;;;3.22;0.22;;;;;;;10.99;46.63;101507.75;5025579;28;20068;-72
2022/11/02 10:20:01;;;;;;;6.35;0.60;;;;;;;10.49;48.03;101517.13;5009375;28;20029;-73
2022/11/02 10:22:31;;;;;;;9.13;0.40;;;;;;;10.61;47.90;101519.34;5023905;28;20436;-72
2022/11/02 10:25:00;;;;;;;9.60;0.50;;;;;;;10.56;47.68;101513.41;5027120;28;20036;-71
2022/11/02 10:27:29;;;;;;;10.30;0.55;;;;;;;10.93;47.62;101533.22;5025248;28;20501;-71
2022/11/02 10:29:59;;;;;;;11.65;0.90;;;;;;;10.48;48.03;101528.44;5009475;28;20041;-72
2022/11/02 10:32:25;;;;;;;14.00;1.37;;;;;;;10.95;47.16;101527.06;5026154;28;20530;-72
2022/11/02 10:34:51;;;;;;;5.70;0.20;;;;;;;10.85;47.65;101530.88;5026599;28;20037;-72
2022/11/02 10:37:29;;;;;;;7.72;0.30;;;;;;;11.24;45.67;101533.13;5024428;28;20896;-72
2022/11/02 10:40:20;;;;;;;2.22;0.10;;;;;;;10.89;47.40;101549.94;5009950;28;20036;-72
2022/11/02 10:43:12;;;;;;;10.38;0.52;;;;;;;11.46;45.72;101555.09;5006191;28;20264;-72
2022/11/02 10:45:58;;;;;;;3.13;0.38;;;;;;;11.12;45.61;101559.69;5015451;28;20349;-71
2022/11/02 10:48:31;;;;;;;8.90;0.98;;;;;;;10.42;47.51;101568.69;5026100;28;20049;-72
2022/11/02 10:51:14;;;;;;;12.30;0.50;;;;;;;10.83;46.96;101566.66;5012134;28;20929;-71
2022/11/02 10:53:46;;;;;;;10.35;0.40;;;;;;;10.46;47.24;101569.44;5005946;28;20638;-72
2022/11/02 10:56:14;;;;;;;7.28;0.32;;;;;;;11.28;46.52;101570.53;5014057;28;20486;-72
2022/11/02 10:58:47;;;;;;;7.60;1.55;;;;;;;10.84;46.60;101571.00;5024278;28;20128;-71
2022/11/02 11:01:12;;;;;;;7.72;0.45;;;;;;;10.04;47.50;101568.00;5026755;28;20036;-72
2022/11/02 11:03:58;;;;;;;4.03;0.43;;;;;;;11.44;45.10;101584.81;5024211;28;20041;-72
2022/11/02 11:06:27;;;;;;;2.45;0.20;;;;;;;10.53;45.59;101603.22;5013377;28;20498;-72
2022/11/02 11:08:59;;;;;;;7.30;0.73;;;;;;;10.51;45.38;101609.41;5024371;28;20072;-72
2022/11/02 11:11:26;;;;;;;5.40;0.20;;;;;;;10.67;45.65;101609.81;5009054;28;20028;-71
2022/11/02 11:14:03;;;;;;;7.25;0.50;;;;;;;10.60;45.75;101607.38;5022271;28;20099;-71
2022/11/02 11:16:43;;;;;;;11.68;0.63;;;;;;;10.66;44.50;101603.75;5012082;28;20032;-72
2022/11/02 11:19:23;;;;;;;4.72;0.40;;;;;;;11.27;43.90;101608.94;5026826;28;20969;-71
2022/11/02 11:21:49;;;;;;;7.30;0.63;;;;;;;10.77;44.76;101629.56;5027156;28;20024;-71
2022/11/02 11:24:23;;;;;;;2.47;0.38;;;;;;;10.45;45.94;101633.94;5025037;28;20048;-71
2022/11/02 11:26:59;;;;;;;6.47;0.73;;;;;;;10.35;45.86;101637.72;5022968;28;20174;-71
2022/11/02 11:29:29;;;;;;;8.65;0.25;;;;;;;9.79;46.28;101636.53;5023540;28;20072;-72
2022/11/02 11:31:55;;;;;;;4.38;0.30;;;;;;;9.63;45.88;101645.56;5024920;28;20065;-72
2022/11/02 11:34:40;;;;;;;8.77;0.93;;;;;;;9.64;46.93;101646.44;5015767;28;20049;-72
2022/11/02 11:37:13;;;;;;;6.60;0.40;;;;;;;9.69;46.89;101653.25;5006119;28;20052;-72
2022/11/02 11:39:41;;;;;;;6.80;1.30;;;;;;;9.74;46.97;101648.78;5025365;28;20025;-72
2022/11/02 11:42:24;;;;;;;3.92;0.65;;;;;;;10.16;46.49;101661.69;5017094;28;20029;-72
2022/11/02 11:45:04;;;;;;;8.02;0.38;;;;;;;10.14;46.34;101663.50;5023372;28;20055;-72
2022/11/02 11:47:35;;;;;;;4.03;0.60;;;;;;;9.17;48.99;101652.69;5009607;28;20056;-72
2022/11/02 11:50:04;;;;;;;5.63;0.20;;;;;;;10.43;46.46;101665.34;5011412;28;20033;-72
2022/11/02 11:52:32;;;;;;;6.38;0.45;;;;;;;10.14;47.38;101679.16;5025056;28;20485;-72
2022/11/02 11:55:19;;;;;;;2.92;0.40;;;;;;;10.54;47.11;101682.50;5013872;28;20037;-71
2022/11/02 11:57:45;;;;;;;9.75;0.73;;;;;;;10.19;47.57;101672.09;5020760;28;20103;-71
2022/11/02 12:00:31;;;;;;;5.65;0.35;;;;;;;10.70;45.61;101677.72;4996245;28;20038;-71